Time;durP1;ratioP1;P1;durP2;ratioP2;P2;SDS_P1;SDS_P2;PMS_P1;PMS_P2;Temp;Humidity;BMP_temperature;BMP_pressure;BME280_temperature;BME280_humidity;BME280_pressure;Samples;Min_cycle;Max_cycle;Signal;HPM_P1;HPM_P2
2021/06/19 00:00:51;;;;;;;10.17;6.43;;;24.70;76.20;;;25.07;72.02;98010.72;5046992;28;21048;-62
2021/06/19 00:03:21;;;;;;;9.90;6.23;;;24.80;74.90;;;25.10;72.53;98013.00;5048871;28;20640;-62
2021/06/19 00:05:49;;;;;;;13.27;7.90;;;24.80;74.90;;;25.13;72.31;98013.44;5048049;28;20734;-62
2021/06/19 00:08:18;;;;;;;10.67;6.40;;;24.80;75.20;;;25.17;73.30;98036.88;5048642;28;20693;-62
2021/06/19 00:10:46;;;;;;;13.43;6.23;;;24.90;76.00;;;25.15;72.72;98038.06;5050702;28;21134;-63
2021/06/19 00:13:16;;;;;;;8.80;6.83;;;24.80;75.70;;;25.17;72.43;98030.72;5050446;28;21282;-62
2021/06/19 00:15:45;;;;;;;9.23;6.80;;;24.90;75.90;;;25.18;72.28;98027.84;5048128;28;20678;-62
2021/06/19 00:18:14;;;;;;;10.30;6.90;;;24.90;74.70;;;25.18;72.59;98033.19;5049775;28;20633;-63
2021/06/19 00:20:43;;;;;;;9.97;6.17;;;24.90;74.70;;;25.17;72.15;98028.84;5037099;28;21229;-62
2021/06/19 00:23:12;;;;;;;10.90;6.37;;;24.90;75.20;;;25.18;71.18;98033.19;5050412;28;20963;-63
2021/06/19 00:25:41;;;;;;;10.20;6.30;;;24.90;74.00;;;25.19;71.17;98024.13;5048337;28;20690;-63
2021/06/19 00:28:09;;;;;;;10.83;5.97;;;24.90;73.00;;;25.18;71.13;98030.53;5049979;28;21055;-63
2021/06/19 00:30:39;;;;;;;9.93;7.20;;;24.90;73.60;;;25.11;71.45;98038.66;5049166;28;20704;-62
2021/06/19 00:33:13;;;;;;;10.97;7.73;;;24.80;74.20;;;25.08;72.68;98039.06;5048887;28;20653;-62
2021/06/19 00:35:41;;;;;;;9.20;6.23;;;24.80;74.90;;;25.07;72.47;98056.13;5045420;28;20703;-63
2021/06/19 00:38:10;;;;;;;7.60;6.50;;;24.80;74.50;;;25.07;72.19;98050.78;5049380;28;20646;-62
2021/06/19 00:40:39;;;;;;;10.97;6.40;;;24.80;74.60;;;25.04;71.29;98051.97;5048960;28;20632;-63
2021/06/19 00:43:08;;;;;;;8.30;7.00;;;24.80;74.20;;;25.03;70.69;98049.50;5046765;28;20815;-62
2021/06/19 00:45:39;;;;;;;11.63;6.60;;;24.70;73.30;;;25.04;73.12;98051.16;5053083;28;20676;-67
2021/06/19 00:48:09;;;;;;;11.60;6.80;;;24.70;75.70;;;24.97;73.45;98056.41;5046696;28;20652;-63
2021/06/19 00:50:39;;;;;;;11.83;7.27;;;24.70;75.80;;;24.92;74.19;98058.03;5043981;28;20642;-63
2021/06/19 00:53:09;;;;;;;8.73;6.33;;;24.70;76.80;;;24.85;74.73;98060.66;5053589;28;20676;-62
2021/06/19 00:55:37;;;;;;;8.17;6.70;;;24.60;77.40;;;24.84;74.42;98082.22;5053038;28;20644;-62
2021/06/19 00:58:06;;;;;;;9.20;7.10;;;24.60;77.20;;;24.82;76.01;98087.75;5052022;28;20707;-62
2021/06/19 01:00:35;;;;;;;10.10;6.50;;;24.60;79.40;;;24.80;75.25;98083.59;5052701;28;21260;-62
2021/06/19 01:03:06;;;;;;;13.83;7.00;;;24.50;79.60;;;24.76;77.13;98085.84;5052127;28;20636;-63
2021/06/19 01:05:35;;;;;;;12.53;6.30;;;24.50;81.60;;;24.69;76.79;98082.28;5050801;28;20731;-62
2021/06/19 01:08:04;;;;;;;11.90;7.00;;;24.50;80.90;;;24.62;76.88;98083.22;5047849;28;21267;-62
2021/06/19 01:10:33;;;;;;;9.93;7.33;;;24.40;81.00;;;24.60;77.38;98074.59;5050713;28;20636;-62
2021/06/19 01:13:02;;;;;;;8.73;7.03;;;24.30;83.30;;;24.55;78.00;98068.19;5050193;28;20728;-62
2021/06/19 01:15:31;;;;;;;10.57;7.23;;;24.30;83.80;;;24.48;78.05;98060.13;5050024;28;20644;-62
2021/06/19 01:18:00;;;;;;;8.60;6.80;;;24.30;84.30;;;24.35;78.22;98070.66;5053469;28;20644;-62
2021/06/19 01:20:37;;;;;;;9.13;7.30;;;24.20;84.10;;;24.26;80.08;98066.44;5052055;28;20644;-62
2021/06/19 01:23:05;;;;;;;9.60;6.30;;;24.10;86.90;;;24.17;78.56;98059.56;5051344;28;20700;-62
2021/06/19 01:25:38;;;;;;;8.67;7.03;;;24.00;84.80;;;24.17;78.98;98059.56;5050087;28;20652;-62
2021/06/19 01:28:10;;;;;;;9.07;6.73;;;24.00;85.70;;;24.17;78.00;98062.25;5052605;28;20643;-62
2021/06/19 01:30:40;;;;;;;13.90;8.33;;;24.00;84.20;;;24.18;78.88;98058.56;5050064;28;20694;-62
2021/06/19 01:33:09;;;;;;;10.10;6.97;;;23.90;84.50;;;24.16;78.90;98049.94;5051820;28;20702;-63
2021/06/19 01:35:37;;;;;;;10.20;7.43;;;23.90;84.90;;;24.16;78.80;98052.59;5047490;28;20652;-62
2021/06/19 01:38:07;;;;;;;10.90;7.17;;;23.90;84.70;;;24.13;78.79;98054.00;5051828;28;20648;-62
2021/06/19 01:40:37;;;;;;;16.50;7.60;;;23.90;84.30;;;24.12;79.98;98050.50;5049150;28;20641;-62
2021/06/19 01:43:06;;;;;;;14.53;8.17;;;23.90;87.40;;;24.07;81.78;98050.25;5051194;28;20640;-62
2021/06/19 01:45:36;;;;;;;9.43;7.30;;;23.80;89.50;;;24.06;81.45;98058.44;5050776;28;21240;-62
2021/06/19 01:48:08;;;;;;;9.13;7.93;;;23.80;88.30;;;24.06;80.90;98056.59;5052643;28;20986;-62
2021/06/19 01:50:38;;;;;;;10.80;7.17;;;23.80;88.90;;;24.08;82.32;98059.88;5049351;28;20682;-63
2021/06/19 01:53:06;;;;;;;8.70;7.37;;;23.80;89.40;;;24.09;83.12;98061.56;5050785;28;20644;-62
2021/06/19 01:55:36;;;;;;;16.00;7.70;;;23.90;90.50;;;24.07;83.37;98049.41;5048952;28;20970;-62
2021/06/19 01:58:05;;;;;;;11.57;7.57;;;23.80;90.50;;;24.05;80.42;98052.28;5048195;28;20697;-62
2021/06/19 02:00:35;;;;;;;9.60;7.20;;;23.80;88.90;;;24.04;81.67;98049.78;5050886;28;20652;-62
2021/06/19 02:03:08;;;;;;;12.03;7.97;;;23.70;90.10;;;23.99;82.65;98054.88;5051306;28;21064;-63
2021/06/19 02:05:37;;;;;;;8.70;6.97;;;23.70;90.70;;;23.95;84.41;98040.25;5051387;28;20631;-62
2021/06/19 02:08:10;;;;;;;11.03;7.60;;;23.70;91.50;;;23.87;83.54;98035.06;5052739;28;21051;-62
2021/06/19 02:10:44;;;;;;;9.97;7.53;;;23.60;90.90;;;23.82;84.20;98032.13;5050652;28;20668;-62
2021/06/19 02:13:13;;;;;;;11.35;7.70;;;23.60;91.40;;;23.74;84.03;98017.09;5051979;28;20628;-62
2021/06/19 02:15:46;;;;;;;13.73;8.93;;;23.50;91.30;;;23.65;84.46;98025.38;5051881;28;20675;-62
2021/06/19 02:18:16;;;;;;;10.80;7.77;;;23.50;91.70;;;23.57;83.98;98025.44;5048850;28;20635;-62
2021/06/19 02:20:47;;;;;;;9.40;8.17;;;23.40;91.50;;;23.53;85.20;98023.34;5050327;28;20636;-62
2021/06/19 02:23:15;;;;;;;10.70;8.30;;;23.30;91.80;;;23.50;84.30;98015.72;5047850;28;21044;-62
2021/06/19 02:25:47;;;;;;;12.50;6.70;;;23.30;91.50;;;23.40;83.66;98008.03;5050638;28;20648;-63
2021/06/19 02:28:16;;;;;;;11.70;7.17;;;23.10;91.00;;;23.39;83.16;98017.00;5048937;28;20697;-63
2021/06/19 02:30:50;;;;;;;9.80;8.23;;;23.10;91.40;;;23.38;84.87;98015.38;5046309;28;20677;-62
2021/06/19 02:33:19;;;;;;;14.80;9.10;;;23.10;92.00;;;23.33;84.53;98007.13;5051500;28;20650;-62
2021/06/19 02:35:49;;;;;;;10.00;7.40;;;23.10;92.10;;;23.28;86.05;97993.53;5048655;28;21305;-63
2021/06/19 02:38:19;;;;;;;9.03;7.43;;;23.00;92.70;;;23.26;86.79;97992.91;5048947;28;20692;-63
2021/06/19 02:40:51;;;;;;;9.90;7.23;;;23.00;93.30;;;23.23;86.98;97998.59;5049760;28;20639;-62
2021/06/19 02:43:21;;;;;;;12.27;9.13;;;23.00;93.70;;;23.24;87.32;98013.56;5049214;28;21225;-62
2021/06/19 02:45:50;;;;;;;12.70;7.97;;;23.00;93.60;;;23.23;86.81;98001.25;5050963;28;20644;-63
2021/06/19 02:48:18;;;;;;;12.60;8.40;;;23.00;93.80;;;23.22;87.38;97993.47;5048513;28;21015;-62
2021/06/19 02:50:51;;;;;;;12.40;9.20;;;23.00;93.90;;;23.18;87.43;97994.00;5049064;28;20767;-62
2021/06/19 02:53:19;;;;;;;12.70;8.73;;;23.00;93.90;;;23.16;88.25;97998.69;5046171;28;20689;-63
2021/06/19 02:55:49;;;;;;;11.67;8.33;;;22.90;94.10;;;23.15;87.44;97994.38;5049113;28;20702;-63
2021/06/19 02:58:18;;;;;;;13.97;8.33;;;23.00;94.20;;;23.11;87.01;98001.06;5071675;28;21018;-63
2021/06/19 03:00:47;;;;;;;9.77;7.80;;;22.90;93.80;;;23.09;88.04;98003.91;5046981;28;20675;-62
2021/06/19 03:03:15;;;;;;;11.80;9.00;;;22.90;94.20;;;23.07;88.09;98011.25;5049261;28;20696;-63
2021/06/19 03:05:44;;;;;;;12.30;9.37;;;22.90;94.00;;;23.03;87.68;98009.16;5050399;28;20635;-62
2021/06/19 03:08:13;;;;;;;11.63;8.80;;;22.80;93.70;;;23.04;87.20;98019.63;5049143;28;20647;-63
2021/06/19 03:10:41;;;;;;;13.40;8.90;;;22.80;93.90;;;22.99;87.90;98027.34;5051445;28;20684;-63
2021/06/19 03:13:12;;;;;;;9.43;8.43;;;22.70;94.10;;;22.97;87.68;98029.38;5051964;28;20654;-62
2021/06/19 03:15:40;;;;;;;12.60;10.30;;;22.60;94.20;;;22.91;87.91;98030.06;5049985;28;21292;-62
2021/06/19 03:18:09;;;;;;;11.03;8.67;;;22.60;94.40;;;22.92;88.40;98033.53;5045739;28;20733;-64
2021/06/19 03:20:37;;;;;;;11.17;8.57;;;22.60;94.60;;;22.88;88.67;98045.53;5048854;28;20737;-65
2021/06/19 03:23:07;;;;;;;13.33;8.37;;;22.60;94.70;;;22.87;88.56;98051.91;5050920;28;20695;-62
2021/06/19 03:25:40;;;;;;;11.30;8.73;;;22.60;95.30;;;22.86;89.40;98050.22;5050402;28;20673;-63
2021/06/19 03:28:09;;;;;;;16.77;9.53;;;22.60;95.00;;;22.87;88.57;98049.22;5048190;28;20635;-62
2021/06/19 03:30:42;;;;;;;11.17;9.97;;;22.60;94.80;;;22.84;88.52;98042.44;5045931;28;20637;-64
2021/06/19 03:33:12;;;;;;;12.40;8.90;;;22.60;94.80;;;22.82;88.59;98054.25;5050620;28;20648;-65
2021/06/19 03:35:42;;;;;;;19.70;8.27;;;22.60;95.00;;;22.81;89.20;98057.94;5049332;28;21465;-62
2021/06/19 03:38:11;;;;;;;13.33;7.80;;;22.60;95.00;;;22.81;88.43;98065.91;5050573;28;20639;-62
2021/06/19 03:40:40;;;;;;;12.10;9.27;;;22.60;94.90;;;22.81;89.21;98066.72;5050136;28;20639;-62
2021/06/19 03:43:09;;;;;;;15.00;8.43;;;22.60;95.10;;;22.83;88.88;98078.00;5048449;28;20643;-62
2021/06/19 03:45:39;;;;;;;11.97;8.57;;;22.60;95.20;;;22.87;89.16;98084.63;5045131;28;20636;-63
2021/06/19 03:48:08;;;;;;;15.93;9.03;;;22.60;95.30;;;22.89;89.48;98084.47;5044291;28;20638;-62
2021/06/19 03:50:37;;;;;;;12.37;9.90;;;22.70;95.50;;;22.89;89.36;98100.41;5049840;28;20690;-62
2021/06/19 03:53:06;;;;;;;10.73;9.00;;;22.70;95.40;;;22.90;89.13;98094.09;5049398;28;20648;-63
2021/06/19 03:55:35;;;;;;;12.60;10.07;;;22.70;95.40;;;22.91;89.52;98101.91;5047549;28;20744;-62
2021/06/19 03:58:05;;;;;;;11.40;9.90;;;22.70;95.30;;;22.92;88.64;98097.41;5051000;28;20679;-63
2021/06/19 04:00:33;;;;;;;11.27;10.10;;;22.70;95.50;;;22.90;88.85;98097.56;5047033;28;20644;-62
2021/06/19 04:03:04;;;;;;;11.17;9.53;;;22.70;95.20;;;22.89;89.23;98119.03;5049661;28;20642;-62
2021/06/19 04:05:33;;;;;;;13.83;10.73;;;22.70;95.30;;;22.89;89.80;98121.72;5050701;28;20626;-62
2021/06/19 04:08:02;;;;;;;10.60;9.50;;;22.70;95.50;;;22.85;89.45;98117.75;5048236;28;20679;-62
2021/06/19 04:10:31;;;;;;;13.17;10.73;;;22.70;95.40;;;22.82;89.70;98120.75;5049375;28;21004;-62
2021/06/19 04:13:00;;;;;;;14.50;10.47;;;22.70;95.40;;;22.81;89.81;98119.13;5045728;28;20634;-62
2021/06/19 04:15:28;;;;;;;13.40;11.87;;;22.60;95.50;;;22.81;89.94;98111.97;5046374;28;20667;-62
2021/06/19 04:17:57;;;;;;;11.83;10.50;;;22.60;95.60;;;22.83;89.87;98119.75;5051624;28;20690;-63
2021/06/19 04:20:27;;;;;;;15.27;12.03;;;22.70;96.10;;;22.85;90.57;98117.75;5050537;28;20661;-62
2021/06/19 04:22:56;;;;;;;12.60;11.30;;;22.70;95.90;;;22.88;90.29;98126.22;5052103;28;20698;-62
2021/06/19 04:25:24;;;;;;;15.60;11.03;;;22.70;95.90;;;22.92;89.66;98124.81;5051567;28;20644;-62
2021/06/19 04:27:56;;;;;;;14.00;10.07;;;22.70;95.80;;;22.99;89.46;98132.97;5053810;28;20735;-62
2021/06/19 04:30:31;;;;;;;11.00;9.90;;;22.80;95.90;;;23.00;89.08;98127.44;5053304;28;20728;-62
2021/06/19 04:33:00;;;;;;;14.10;11.23;;;22.80;95.60;;;23.02;89.89;98141.41;5053090;28;20637;-62
2021/06/19 04:35:32;;;;;;;13.13;11.00;;;22.80;95.70;;;23.07;90.19;98147.00;5048920;28;21008;-63
2021/06/19 04:38:01;;;;;;;11.73;10.37;;;22.80;96.00;;;23.09;90.23;98160.97;5048506;28;20627;-63
2021/06/19 04:40:35;;;;;;;14.77;10.87;;;22.90;96.20;;;23.10;90.18;98154.63;5053450;28;20701;-63
2021/06/19 04:43:05;;;;;;;13.30;10.87;;;22.90;96.00;;;23.11;90.11;98145.66;5050306;28;21196;-62
2021/06/19 04:45:35;;;;;;;16.60;10.60;;;22.90;96.10;;;23.11;89.84;98161.63;5048382;28;20667;-62
2021/06/19 04:48:07;;;;;;;15.53;11.07;;;22.90;95.90;;;23.13;90.10;98142.81;5053645;28;20636;-62
2021/06/19 04:50:38;;;;;;;13.40;11.90;;;22.90;95.90;;;23.16;89.49;98153.91;5052515;28;20671;-62
2021/06/19 04:53:07;;;;;;;14.23;11.40;;;22.90;96.00;;;23.15;89.40;98157.56;5045989;28;20635;-62
2021/06/19 04:55:36;;;;;;;13.50;10.77;;;22.90;95.70;;;23.17;89.57;98165.38;5053031;28;20685;-62
2021/06/19 04:58:05;;;;;;;14.13;11.17;;;22.90;95.90;;;23.17;89.77;98165.38;5051192;28;20713;-63
2021/06/19 05:00:34;;;;;;;13.00;10.87;;;22.90;95.70;;;23.17;89.34;98171.56;5053492;28;20641;-62
2021/06/19 05:03:04;;;;;;;11.83;10.63;;;22.90;95.70;;;23.18;89.42;98173.19;5053295;28;20651;-63
2021/06/19 05:05:33;;;;;;;12.83;10.20;;;22.90;95.70;;;23.19;88.96;98178.34;5050122;28;20642;-63
2021/06/19 05:08:03;;;;;;;12.03;10.93;;;23.00;95.70;;;23.21;88.71;98167.50;5054205;28;20889;-63
2021/06/19 05:10:32;;;;;;;12.67;11.20;;;23.00;95.50;;;23.26;88.85;98175.78;5049851;28;20650;-63
2021/06/19 05:13:01;;;;;;;13.40;11.40;;;23.00;95.80;;;23.34;89.82;98173.03;5053129;28;20709;-63
2021/06/19 05:15:30;;;;;;;16.33;11.67;;;23.10;95.80;;;23.45;88.99;98176.06;5051183;28;21303;-62
2021/06/19 05:17:58;;;;;;;14.97;10.60;;;23.20;95.90;;;23.60;88.57;98174.25;5047863;28;20638;-63
2021/06/19 05:20:30;;;;;;;13.80;9.57;;;23.30;95.60;;;23.75;87.69;98175.97;5051938;28;20685;-62
2021/06/19 05:23:00;;;;;;;13.70;10.30;;;23.40;95.10;;;23.91;86.61;98177.59;5047587;28;20642;-62
2021/06/19 05:25:30;;;;;;;13.50;10.13;;;23.60;94.90;;;24.03;86.89;98170.78;5050157;28;20689;-63
2021/06/19 05:27:59;;;;;;;11.30;10.07;;;23.70;95.10;;;24.15;87.46;98176.28;5049487;28;20722;-63
2021/06/19 05:30:27;;;;;;;14.73;10.90;;;23.80;94.90;;;24.30;86.19;98178.91;5048834;28;20639;-63
2021/06/19 05:32:56;;;;;;;12.13;9.63;;;24.00;94.60;;;24.48;86.50;98182.03;5051066;28;20647;-63
2021/06/19 05:35:25;;;;;;;11.93;10.70;;;24.10;94.80;;;24.67;84.42;98190.22;5051929;28;20726;-62
2021/06/19 05:37:53;;;;;;;14.03;11.10;;;24.30;93.80;;;24.92;84.99;98188.84;5048411;28;20705;-63
2021/06/19 05:40:22;;;;;;;10.97;8.83;;;24.50;93.70;;;25.26;83.52;98200.50;5052254;28;20782;-63
2021/06/19 05:42:53;;;;;;;11.50;9.00;;;24.80;93.00;;;25.57;81.48;98199.06;5049756;28;21214;-63
2021/06/19 05:45:22;;;;;;;12.80;9.27;;;25.10;92.30;;;26.01;80.61;98199.56;5050027;28;20624;-63
2021/06/19 05:47:51;;;;;;;11.17;9.17;;;25.40;91.90;;;26.44;79.44;98197.34;5052458;28;20682;-63
2021/06/19 05:50:20;;;;;;;11.90;9.30;;;25.80;90.90;;;26.89;78.19;98207.38;5052789;28;20726;-63
2021/06/19 05:52:49;;;;;;;14.30;8.90;;;26.30;90.50;;;27.24;76.87;98207.00;5049920;28;20633;-62
2021/06/19 05:55:17;;;;;;;10.60;8.30;;;26.70;88.10;;;27.45;75.31;98209.47;5048102;28;21053;-63
2021/06/19 05:57:46;;;;;;;11.07;8.80;;;27.00;84.80;;;27.43;74.65;98214.22;5052157;28;20641;-63
2021/06/19 06:00:17;;;;;;;9.40;8.23;;;27.10;83.30;;;27.17;75.76;98200.84;5048278;28;20709;-63
2021/06/19 06:02:46;;;;;;;11.93;8.73;;;27.00;83.20;;;26.95;75.01;98203.91;5052182;28;20640;-63
2021/06/19 06:05:15;;;;;;;12.00;8.30;;;26.80;82.40;;;26.82;75.77;98195.78;5048033;28;20672;-63
2021/06/19 06:07:44;;;;;;;11.07;8.50;;;26.70;83.40;;;26.70;77.15;98186.69;5050788;28;20659;-63
2021/06/19 06:10:13;;;;;;;11.63;9.07;;;26.60;84.90;;;26.84;77.14;98186.53;5044787;28;21075;-63
2021/06/19 06:12:43;;;;;;;12.80;8.90;;;26.70;85.10;;;27.07;75.37;98193.16;5044125;28;20641;-64
2021/06/19 06:15:12;;;;;;;10.37;8.80;;;26.80;84.00;;;27.36;74.93;98200.00;5047940;28;20639;-63
2021/06/19 06:17:43;;;;;;;12.77;8.43;;;27.10;82.20;;;27.72;74.50;98204.72;5049315;28;20664;-63
2021/06/19 06:20:13;;;;;;;9.53;8.40;;;27.40;83.10;;;28.10;73.14;98203.88;5050009;28;20637;-63
2021/06/19 06:22:42;;;;;;;10.03;8.00;;;27.70;80.80;;;28.13;72.47;98202.59;5048795;28;20643;-63
2021/06/19 06:25:12;;;;;;;9.30;7.20;;;27.80;78.90;;;27.90;69.82;98196.84;5050766;28;20649;-63
2021/06/19 06:27:42;;;;;;;12.90;8.00;;;27.70;75.40;;;27.75;70.34;98203.50;5048122;28;20671;-63
2021/06/19 06:30:12;;;;;;;11.87;7.50;;;27.60;73.60;;;28.06;69.19;98201.78;5048559;28;20641;-63
2021/06/19 06:32:43;;;;;;;12.33;8.30;;;27.70;73.60;;;28.14;68.23;98207.75;5050120;28;20635;-63
2021/06/19 06:35:13;;;;;;;11.23;8.30;;;27.80;72.50;;;27.99;69.96;98200.97;5051366;28;20687;-63
2021/06/19 06:37:44;;;;;;;11.50;7.57;;;27.80;74.70;;;27.81;71.44;98195.44;5047548;28;20775;-63
2021/06/19 06:40:14;;;;;;;10.00;8.00;;;27.70;75.60;;;27.60;71.05;98189.50;5049993;28;20641;-63
2021/06/19 06:42:43;;;;;;;13.60;8.70;;;27.50;74.50;;;27.45;71.20;98186.16;5050600;28;20677;-63
2021/06/19 06:45:15;;;;;;;11.63;8.57;;;27.30;74.80;;;27.52;72.74;98186.22;5050513;28;20741;-63
2021/06/19 06:47:51;;;;;;;13.67;7.90;;;27.30;77.50;;;27.79;71.66;98197.50;5045119;28;20690;-63
2021/06/19 06:50:21;;;;;;;13.80;8.70;;;27.50;76.20;;;27.76;70.00;98194.44;5051859;28;20672;-63
2021/06/19 06:52:51;;;;;;;15.10;7.60;;;27.50;74.80;;;28.25;70.37;98188.34;5046700;28;20689;-63
2021/06/19 06:55:19;;;;;;;12.63;7.73;;;27.80;76.10;;;28.53;69.05;98194.19;5050326;28;20643;-63
2021/06/19 06:57:49;;;;;;;12.20;8.03;;;28.10;73.80;;;28.80;67.72;98201.91;5049805;28;21088;-63
2021/06/19 07:00:19;;;;;;;11.87;8.33;;;28.30;72.00;;;29.41;66.08;98202.94;5049117;28;20635;-63
2021/06/19 07:02:50;;;;;;;12.43;8.17;;;28.80;70.50;;;29.69;64.68;98201.47;5048798;28;20679;-64
2021/06/19 07:05:18;;;;;;;10.43;7.63;;;29.10;68.60;;;29.78;66.31;98200.94;5050378;28;20642;-63
2021/06/19 07:07:48;;;;;;;11.67;7.80;;;29.20;70.30;;;30.18;65.16;98207.59;5049004;28;21250;-63
2021/06/19 07:10:17;;;;;;;14.10;8.30;;;29.60;68.10;;;30.57;63.63;98205.28;5049903;28;20654;-63
2021/06/19 07:12:46;;;;;;;12.13;7.40;;;29.90;67.20;;;30.89;63.26;98198.66;5051335;28;20633;-63
2021/06/19 07:15:17;;;;;;;17.30;9.60;;;30.30;65.60;;;31.18;63.29;98196.72;5043849;28;20632;-63
2021/06/19 07:17:48;;;;;;;9.43;8.20;;;30.50;65.60;;;31.45;63.50;98203.38;5045897;28;20796;-63
2021/06/19 07:20:19;;;;;;;10.77;8.33;;;30.80;65.70;;;31.56;62.03;98202.59;5048948;28;20640;-63
2021/06/19 07:22:48;;;;;;;12.67;8.53;;;30.90;62.90;;;31.74;62.19;98195.22;5044809;28;20656;-63
2021/06/19 07:25:17;;;;;;;10.90;9.07;;;31.10;63.50;;;31.90;63.75;98203.44;5049732;28;20961;-63
2021/06/19 07:27:53;;;;;;;11.43;8.47;;;31.30;65.20;;;32.01;63.47;98199.06;5047359;28;20675;-63
2021/06/19 07:30:24;;;;;;;12.07;8.77;;;31.50;64.20;;;32.16;61.64;98208.38;5047906;28;20718;-64
2021/06/19 07:32:53;;;;;;;16.07;9.60;;;31.60;61.20;;;32.22;61.92;98210.13;5047780;28;20686;-65
2021/06/19 07:35:23;;;;;;;14.30;9.10;;;31.70;62.60;;;32.25;60.39;98201.53;5047232;28;20668;-65
2021/06/19 07:37:51;;;;;;;15.10;8.90;;;31.70;60.90;;;32.33;60.40;98194.94;5042943;28;20658;-65
2021/06/19 07:40:22;;;;;;;17.10;9.50;;;31.70;59.80;;;32.54;62.07;98200.56;5045109;28;21008;-64
2021/06/19 07:42:50;;;;;;;11.13;8.80;;;31.90;62.90;;;32.73;61.28;98191.19;5048492;28;20644;-64
2021/06/19 07:45:19;;;;;;;12.13;9.17;;;32.10;62.20;;;32.89;61.38;98197.44;5042030;28;21058;-66
2021/06/19 07:47:49;;;;;;;12.60;8.43;;;32.30;61.60;;;32.98;60.33;98181.69;5047527;28;20628;-65
2021/06/19 07:50:18;;;;;;;13.27;8.63;;;32.40;60.30;;;33.05;59.41;98187.78;5049375;28;20636;-65
2021/06/19 07:52:49;;;;;;;9.70;8.13;;;32.50;59.10;;;33.12;59.46;98186.56;5045344;28;21056;-65
2021/06/19 07:55:18;;;;;;;11.20;8.30;;;32.60;58.50;;;33.20;58.47;98186.16;5052458;28;20629;-65
2021/06/19 07:57:47;;;;;;;13.30;8.70;;;32.70;57.70;;;33.16;58.71;98176.88;5051540;28;20718;-64
2021/06/19 08:00:17;;;;;;;14.57;8.50;;;32.70;57.60;;;33.22;58.29;98170.50;5053417;28;21187;-65
2021/06/19 08:02:53;;;;;;;11.07;8.20;;;32.80;57.60;;;33.32;58.95;98167.97;5049900;28;20686;-65
2021/06/19 08:05:22;;;;;;;10.23;7.97;;;32.80;58.20;;;33.41;57.96;98163.78;5054150;28;21175;-65
2021/06/19 08:07:53;;;;;;;9.90;8.20;;;32.90;56.60;;;33.53;58.57;98157.25;5053006;28;20710;-65
2021/06/19 08:10:21;;;;;;;11.10;8.20;;;33.00;57.00;;;33.51;56.58;98147.72;5046008;28;21049;-65
2021/06/19 08:12:51;;;;;;;13.40;7.93;;;33.00;55.70;;;33.41;56.41;98139.44;5055424;28;20632;-65
2021/06/19 08:15:21;;;;;;;8.90;7.50;;;32.90;54.70;;;33.38;57.15;98134.50;5052951;28;20628;-65
2021/06/19 08:17:50;;;;;;;13.07;7.67;;;32.90;55.00;;;33.47;56.58;98138.47;5052781;28;21297;-65
2021/06/19 08:20:19;;;;;;;10.30;8.07;;;32.90;55.00;;;33.53;56.81;98140.16;5051672;28;20644;-65
2021/06/19 08:22:48;;;;;;;20.43;18.30;;;33.00;55.00;;;33.62;57.46;98142.22;5054177;28;20621;-65
2021/06/19 08:25:18;;;;;;;14.43;11.10;;;33.20;56.00;;;33.61;57.51;98139.75;5053380;28;20638;-65
2021/06/19 08:27:47;;;;;;;12.13;7.63;;;33.20;55.90;;;33.69;57.86;98137.44;5049962;28;20668;-65
2021/06/19 08:30:17;;;;;;;13.77;8.03;;;33.30;55.60;;;33.76;57.10;98129.16;5046602;28;20687;-65
2021/06/19 08:32:46;;;;;;;11.20;8.53;;;33.30;55.00;;;33.88;57.02;98131.50;5049305;28;20654;-65
2021/06/19 08:35:15;;;;;;;14.07;8.50;;;33.40;55.00;;;33.99;57.25;98133.28;5046462;28;20653;-65
2021/06/19 08:37:44;;;;;;;12.83;8.07;;;33.50;55.80;;;34.00;55.65;98126.81;5048075;28;21215;-65
2021/06/19 08:40:13;;;;;;;11.53;8.30;;;33.50;53.50;;;33.96;55.81;98131.09;5048911;28;20666;-65
2021/06/19 08:42:44;;;;;;;11.47;7.97;;;33.50;53.30;;;34.04;56.57;98124.41;5052375;28;21150;-65
2021/06/19 08:45:13;;;;;;;14.73;13.17;;;33.50;54.40;;;34.13;57.35;98129.16;5049101;28;21281;-65
2021/06/19 08:47:42;;;;;;;13.27;8.60;;;33.60;55.40;;;34.09;55.81;98117.19;5054830;28;20632;-65
2021/06/19 08:50:13;;;;;;;12.27;8.50;;;33.60;53.70;;;34.13;56.89;98126.44;5053277;28;20659;-65
2021/06/19 08:52:44;;;;;;;11.40;8.80;;;33.70;54.60;;;34.15;57.24;98126.19;5054385;28;20980;-65
2021/06/19 08:55:15;;;;;;;10.60;9.47;;;33.70;54.70;;;34.08;57.39;98123.66;5053599;28;21031;-65
2021/06/19 08:57:47;;;;;;;11.37;9.10;;;33.60;55.20;;;34.06;55.81;98123.09;5054823;28;20756;-65
2021/06/19 09:00:18;;;;;;;16.70;8.67;;;33.60;53.50;;;34.11;57.34;98128.56;5049944;28;20644;-66
2021/06/19 09:02:51;;;;;;;11.33;8.53;;;33.60;55.70;;;34.04;56.55;98124.41;5050809;28;20742;-65
2021/06/19 09:05:28;;;;;;;14.97;9.17;;;33.50;54.60;;;34.01;57.34;98123.03;5048130;28;20621;-65
2021/06/19 09:07:58;;;;;;;8.80;8.00;;;33.50;55.00;;;34.01;57.80;98122.19;5052459;28;20620;-65
2021/06/19 09:10:32;;;;;;;11.63;8.60;;;33.40;54.90;;;33.99;56.52;98114.31;5052411;28;20628;-65
2021/06/19 09:13:09;;;;;;;14.37;8.40;;;33.50;54.80;;;33.97;56.75;98121.91;5059347;28;20636;-65
2021/06/19 09:15:43;;;;;;;9.03;7.97;;;33.50;54.70;;;33.98;58.12;98112.72;5051770;28;21045;-66
2021/06/19 09:18:23;;;;;;;10.73;8.63;;;33.50;56.30;;;33.86;56.67;98117.38;5052913;28;20734;-65
2021/06/19 09:20:55;;;;;;;10.40;8.80;;;33.40;53.80;;;33.91;57.00;98112.06;5048516;28;20647;-65
2021/06/19 09:23:33;;;;;;;15.13;8.50;;;33.40;54.40;;;34.06;58.17;98112.25;5051236;28;20719;-65
2021/06/19 09:26:14;;;;;;;10.27;7.83;;;33.50;55.50;;;34.17;56.54;98116.72;5049946;28;21233;-65
2021/06/19 09:29:06;;;;;;;10.47;8.63;;;33.60;54.40;;;34.26;56.92;98115.22;5046935;28;20621;-65
2021/06/19 09:31:39;;;;;;;9.90;8.47;;;33.70;55.10;;;34.34;58.16;98115.59;5053858;28;20678;-65
2021/06/19 09:34:10;;;;;;;14.40;9.27;;;33.80;55.30;;;34.24;55.68;98111.94;5050404;28;20640;-65
2021/06/19 09:36:42;;;;;;;10.20;8.13;;;33.70;52.60;;;34.24;56.03;98119.28;5050349;28;20625;-65
2021/06/19 09:39:13;;;;;;;10.50;8.37;;;33.70;53.60;;;34.16;55.94;98116.97;5051033;28;21038;-65
2021/06/19 09:41:44;;;;;;;10.43;8.40;;;33.60;52.90;;;33.99;56.60;98113.50;5045220;28;20624;-65
2021/06/19 09:44:15;;;;;;;11.23;8.30;;;33.40;53.90;;;34.11;56.59;98104.19;5050731;28;20686;-65
2021/06/19 09:46:57;;;;;;;12.13;8.83;;;33.50;53.70;;;34.17;56.21;98116.72;5047041;28;21399;-65
2021/06/19 09:49:32;;;;;;;13.13;9.23;;;33.60;53.80;;;34.28;57.39;98112.25;5050946;28;20632;-65
2021/06/19 09:52:02;;;;;;;9.60;8.40;;;33.70;54.80;;;34.35;57.52;98110.97;5053574;28;20961;-65
2021/06/19 09:54:39;;;;;;;11.80;8.33;;;33.80;55.20;;;34.37;56.27;98112.38;5057407;28;21462;-65
2021/06/19 09:57:11;;;;;;;13.60;9.13;;;33.90;53.80;;;34.41;57.39;98112.72;5050800;28;20635;-65
2021/06/19 09:59:43;;;;;;;9.47;8.60;;;33.90;54.70;;;34.49;56.54;98112.25;5052387;28;20696;-65
2021/06/19 10:02:21;;;;;;;12.60;8.50;;;34.00;54.10;;;34.43;54.31;98105.13;5050799;28;20625;-65
2021/06/19 10:04:52;;;;;;;10.90;8.07;;;33.90;51.40;;;34.38;57.82;98103.16;5052897;28;20682;-65
2021/06/19 10:07:22;;;;;;;11.27;8.10;;;33.80;54.30;;;34.38;57.89;98096.91;5051851;28;20675;-65
2021/06/19 10:09:52;;;;;;;13.03;9.20;;;33.80;54.10;;;34.40;58.90;98095.63;5053195;28;20629;-65
2021/06/19 10:12:22;;;;;;;10.83;9.03;;;33.80;55.50;;;34.49;55.90;98091.41;5052752;28;21190;-66
2021/06/19 10:15:01;;;;;;;13.80;8.30;;;33.90;53.20;;;34.51;55.28;98075.69;5053372;28;20632;-65
2021/06/19 10:17:33;;;;;;;11.77;8.53;;;33.90;52.60;;;34.54;55.31;98074.38;5044927;28;20625;-65
2021/06/19 10:20:04;;;;;;;12.13;8.97;;;34.00;52.10;;;34.57;55.16;98066.53;5051898;28;20664;-65
2021/06/19 10:22:37;;;;;;;10.30;8.23;;;34.00;52.30;;;34.67;55.83;98066.63;5048371;28;20617;-65
2021/06/19 10:25:10;;;;;;;11.90;8.80;;;34.10;54.10;;;34.69;55.78;98058.25;5052440;28;20682;-65